createdAt,value
2022-12-06T00:00:00.156Z,6.50
2022-12-06T00:02:34.321Z,5.90
2022-12-06T00:05:05.161Z,5.60
2022-12-06T00:07:35.917Z,6.20
2022-12-06T00:10:08.110Z,5.40
2022-12-06T00:12:38.756Z,5.50
2022-12-06T00:15:10.600Z,5.30
2022-12-06T00:17:43.196Z,6.10
2022-12-06T00:20:14.211Z,5.80
2022-12-06T00:22:47.596Z,6.30
2022-12-06T00:25:18.401Z,6.20
2022-12-06T00:27:49.320Z,6.20
2022-12-06T00:30:20.283Z,7.00
2022-12-06T00:32:50.872Z,6.20
2022-12-06T00:35:21.487Z,6.40
2022-12-06T00:37:52.348Z,7.50
2022-12-06T00:40:22.939Z,6.90
2022-12-06T00:42:54.040Z,6.60
2022-12-06T00:45:24.628Z,5.90
2022-12-06T00:47:55.345Z,6.00
2022-12-06T00:50:26.507Z,7.30
2022-12-06T00:52:58.677Z,5.30
2022-12-06T00:55:29.189Z,7.60
2022-12-06T00:57:59.805Z,6.80
2022-12-06T01:00:30.395Z,6.90
2022-12-06T01:03:01.481Z,7.40
2022-12-06T01:05:32.573Z,6.80
2022-12-06T01:08:03.401Z,7.20
2022-12-06T01:10:34.201Z,8.80
2022-12-06T01:13:04.925Z,8.10
2022-12-06T01:15:39.241Z,7.50
2022-12-06T01:18:09.901Z,6.90
2022-12-06T01:20:40.288Z,7.60
2022-12-06T01:23:10.789Z,6.00
2022-12-06T01:25:41.458Z,7.40
2022-12-06T01:28:12.019Z,7.50
2022-12-06T01:30:43.191Z,7.30
2022-12-06T01:33:13.630Z,7.20
2022-12-06T01:35:44.411Z,8.10
2022-12-06T01:38:15.014Z,6.70
2022-12-06T01:40:46.845Z,7.70
2022-12-06T01:43:34.745Z,7.20
2022-12-06T01:46:21.428Z,9.80
2022-12-06T01:48:55.109Z,8.00
2022-12-06T01:51:25.860Z,9.40
2022-12-06T01:53:57.210Z,9.70
2022-12-06T01:56:27.933Z,9.80
2022-12-06T01:58:59.952Z,9.80
2022-12-06T02:01:32.611Z,11.20
2022-12-06T02:04:03.383Z,7.50
2022-12-06T02:06:34.591Z,11.00
2022-12-06T02:09:07.943Z,9.20
2022-12-06T02:11:38.640Z,10.50
2022-12-06T02:14:12.663Z,9.20
2022-12-06T02:16:59.182Z,10.60
2022-12-06T02:19:54.964Z,12.10
2022-12-06T02:22:31.485Z,10.90
2022-12-06T02:25:14.950Z,10.10
2022-12-06T02:27:57.227Z,10.00
2022-12-06T02:30:38.232Z,9.50
2022-12-06T02:33:11.184Z,9.10
2022-12-06T02:38:16.982Z,9.50
2022-12-06T02:40:50.897Z,9.80
2022-12-06T02:43:22.770Z,8.10
2022-12-06T02:45:56.032Z,9.20
2022-12-06T02:48:27.867Z,8.50
2022-12-06T02:51:00.225Z,8.50
2022-12-06T02:53:35.270Z,10.50
2022-12-06T02:56:06.633Z,9.00
2022-12-06T02:58:38.619Z,9.50
2022-12-06T03:01:13.063Z,8.40
2022-12-06T03:03:56.801Z,10.10
2022-12-06T03:06:48.918Z,8.60
2022-12-06T03:09:29.174Z,9.40
2022-12-06T03:12:03.983Z,9.90
2022-12-06T03:14:39.532Z,9.60
2022-12-06T03:17:16.358Z,8.00
2022-12-06T03:19:52.453Z,10.30
2022-12-06T03:22:26.538Z,6.80
2022-12-06T03:24:57.090Z,9.30
2022-12-06T03:27:28.044Z,8.40
2022-12-06T03:30:01.537Z,7.70
2022-12-06T03:32:34.667Z,9.10
2022-12-06T03:35:09.155Z,8.10
2022-12-06T03:37:41.657Z,8.00
2022-12-06T03:40:15.307Z,7.40
2022-12-06T03:42:47.810Z,9.10
2022-12-06T03:45:18.915Z,8.60
2022-12-06T03:47:56.529Z,7.70
2022-12-06T03:50:31.239Z,9.00
2022-12-06T03:53:02.026Z,8.80
2022-12-06T03:55:32.514Z,9.40
2022-12-06T03:58:03.272Z,8.30
2022-12-06T04:00:33.840Z,7.70
2022-12-06T04:03:04.332Z,8.70
2022-12-06T04:05:34.799Z,8.40
2022-12-06T04:08:05.502Z,7.50
2022-12-06T04:10:36.015Z,6.50
2022-12-06T04:13:06.421Z,9.30
2022-12-06T04:15:38.524Z,8.70
2022-12-06T04:18:13.705Z,7.80
2022-12-06T04:21:06.323Z,7.50
2022-12-06T04:23:39.104Z,7.80
2022-12-06T04:26:11.428Z,7.00
2022-12-06T04:28:59.838Z,7.70
2022-12-06T04:31:48.133Z,6.40
2022-12-06T04:34:36.387Z,6.50
2022-12-06T04:37:24.270Z,7.00
2022-12-06T04:39:54.696Z,7.70
2022-12-06T04:42:42.475Z,7.20
2022-12-06T04:45:13.645Z,6.80
2022-12-06T04:47:44.019Z,5.10
2022-12-06T04:50:14.483Z,5.30
2022-12-06T04:52:45.020Z,5.30
2022-12-06T04:55:15.541Z,5.70
2022-12-06T04:57:45.957Z,6.00
2022-12-06T05:00:18.263Z,7.40
2022-12-06T05:02:48.721Z,5.30
2022-12-06T05:05:19.318Z,5.40
2022-12-06T05:07:50.014Z,5.10
2022-12-06T05:10:20.879Z,5.90
2022-12-06T05:12:51.321Z,7.20
2022-12-06T05:15:24.485Z,7.00
2022-12-06T05:17:57.120Z,5.90
2022-12-06T05:20:27.566Z,6.00
2022-12-06T05:22:58.070Z,5.40
2022-12-06T05:25:28.580Z,5.70
2022-12-06T05:27:58.987Z,6.30
2022-12-06T05:30:29.609Z,6.70
2022-12-06T05:33:00.003Z,8.00
2022-12-06T05:35:30.612Z,7.20
2022-12-06T05:38:01.039Z,6.60
2022-12-06T05:40:31.404Z,6.70
2022-12-06T05:43:01.827Z,6.80
2022-12-06T05:45:32.504Z,6.70
2022-12-06T05:48:03.098Z,7.50
2022-12-06T05:50:33.730Z,7.10
2022-12-06T05:53:06.736Z,8.90
2022-12-06T05:55:40.388Z,6.50
2022-12-06T05:58:11.302Z,6.40
2022-12-06T06:00:42.208Z,6.40
2022-12-06T06:03:12.846Z,6.10
2022-12-06T06:05:49.508Z,7.70
2022-12-06T06:08:20.386Z,7.00
2022-12-06T06:10:50.856Z,6.60
2022-12-06T06:13:21.366Z,7.50
2022-12-06T06:15:52.502Z,7.50
2022-12-06T06:18:23.167Z,6.80
2022-12-06T06:20:55.731Z,6.60
2022-12-06T06:23:26.675Z,8.60
2022-12-06T06:25:57.318Z,6.60
2022-12-06T06:28:27.944Z,6.00
2022-12-06T06:30:58.308Z,8.10
2022-12-06T06:33:29.020Z,5.80
2022-12-06T06:35:59.583Z,5.70
2022-12-06T06:38:30.000Z,6.00
2022-12-06T06:41:03.754Z,6.10
2022-12-06T06:43:34.938Z,6.70
2022-12-06T06:46:07.325Z,5.40
2022-12-06T06:48:39.144Z,6.90
2022-12-06T06:51:11.753Z,6.50
2022-12-06T06:53:42.480Z,6.70
2022-12-06T06:56:12.994Z,6.30
2022-12-06T06:58:43.417Z,7.30
2022-12-06T07:01:20.782Z,6.10
2022-12-06T07:03:51.975Z,6.80
2022-12-06T07:06:22.387Z,8.40
2022-12-06T07:09:01.665Z,6.60
2022-12-06T07:11:32.366Z,6.00
2022-12-06T07:14:03.850Z,6.50
2022-12-06T07:16:34.480Z,7.60
2022-12-06T07:19:08.981Z,7.30
2022-12-06T07:21:39.704Z,6.40
2022-12-06T07:24:10.229Z,5.90
2022-12-06T07:26:41.106Z,6.20
2022-12-06T07:29:11.553Z,6.10
2022-12-06T07:31:41.996Z,5.70
2022-12-06T07:34:12.970Z,5.50
2022-12-06T07:36:43.323Z,4.90
2022-12-06T07:39:15.176Z,6.30
2022-12-06T07:42:03.314Z,4.60
2022-12-06T07:45:03.120Z,9.00
2022-12-06T07:47:36.594Z,4.90
2022-12-06T07:50:12.837Z,6.50
2022-12-06T07:52:48.628Z,5.70
2022-12-06T07:55:19.552Z,5.50
2022-12-06T07:57:49.992Z,6.20
2022-12-06T08:00:21.648Z,5.90
2022-12-06T08:02:52.001Z,6.10
2022-12-06T08:05:22.430Z,5.50
2022-12-06T08:07:52.840Z,7.40
2022-12-06T08:10:23.246Z,7.70
2022-12-06T08:12:53.621Z,6.70
2022-12-06T08:15:26.832Z,16.10
2022-12-06T08:17:57.324Z,10.70
2022-12-06T08:20:27.733Z,6.50
2022-12-06T08:22:58.066Z,6.40
2022-12-06T08:25:28.487Z,7.50
2022-12-06T08:27:58.881Z,7.50
2022-12-06T08:30:29.255Z,6.50
2022-12-06T08:32:59.639Z,6.80
2022-12-06T08:35:30.035Z,5.90
2022-12-06T08:38:00.817Z,5.50
2022-12-06T08:40:31.187Z,5.60
2022-12-06T08:43:01.587Z,6.20
2022-12-06T08:45:32.009Z,6.80
2022-12-06T08:48:02.477Z,7.20
2022-12-06T08:50:33.107Z,5.40
2022-12-06T08:53:03.456Z,4.90
2022-12-06T08:55:33.870Z,5.20
2022-12-06T08:58:04.353Z,5.90
2022-12-06T09:00:34.835Z,6.10
2022-12-06T09:03:05.267Z,5.70
2022-12-06T09:05:37.564Z,5.20
2022-12-06T09:08:08.107Z,5.90
2022-12-06T09:10:38.537Z,6.10
2022-12-06T09:13:09.259Z,7.80
2022-12-06T09:15:40.172Z,8.30
2022-12-06T09:18:10.602Z,16.40
2022-12-06T09:20:43.255Z,6.50
2022-12-06T09:23:13.708Z,5.30
2022-12-06T09:25:45.329Z,4.70
2022-12-06T09:28:15.908Z,4.80
2022-12-06T09:30:46.314Z,5.50
2022-12-06T09:33:16.820Z,4.60
2022-12-06T09:35:47.654Z,5.50
2022-12-06T09:38:18.595Z,5.00
2022-12-06T09:40:55.674Z,3.90
2022-12-06T09:43:34.825Z,4.10
2022-12-06T09:46:22.382Z,5.50
2022-12-06T09:49:02.603Z,7.30
2022-12-06T09:51:46.548Z,4.90
2022-12-06T09:54:26.348Z,5.60
2022-12-06T09:57:02.558Z,5.30
2022-12-06T09:59:37.736Z,4.40
2022-12-06T10:02:29.179Z,6.10
2022-12-06T10:05:26.866Z,6.30
2022-12-06T10:08:05.632Z,4.80
2022-12-06T10:10:45.322Z,4.90
2022-12-06T10:13:22.885Z,5.20
2022-12-06T10:16:00.537Z,5.00
2022-12-06T10:18:46.608Z,4.80
2022-12-06T10:21:22.222Z,5.20
2022-12-06T10:24:02.264Z,6.20
2022-12-06T10:26:37.615Z,5.70
2022-12-06T10:29:15.027Z,5.90
2022-12-06T10:32:00.023Z,4.70
2022-12-06T10:34:47.323Z,5.90
2022-12-06T10:37:29.510Z,5.90
2022-12-06T10:40:04.597Z,5.40
2022-12-06T10:42:39.673Z,5.40
2022-12-06T10:45:32.768Z,5.30
2022-12-06T10:48:05.574Z,5.60
2022-12-06T10:50:37.575Z,6.10
2022-12-06T10:53:12.450Z,4.70
2022-12-06T10:55:47.092Z,4.60
2022-12-06T10:58:20.538Z,6.20
2022-12-06T11:00:55.862Z,5.40
2022-12-06T11:03:30.024Z,6.10
2022-12-06T11:06:03.962Z,5.20
2022-12-06T11:08:38.545Z,6.30
2022-12-06T11:11:19.138Z,4.30
2022-12-06T11:13:52.635Z,5.70
2022-12-06T11:16:27.189Z,5.20
2022-12-06T11:19:07.573Z,5.30
2022-12-06T11:21:44.700Z,5.30
2022-12-06T11:24:19.620Z,5.30
2022-12-06T11:26:57.594Z,8.20
2022-12-06T11:29:31.602Z,4.50
2022-12-06T11:32:07.649Z,4.50
2022-12-06T11:34:44.604Z,4.40
2022-12-06T11:37:19.221Z,4.20
2022-12-06T11:39:52.634Z,4.70
2022-12-06T11:42:28.404Z,4.50
2022-12-06T11:45:06.010Z,4.60
2022-12-06T11:47:38.012Z,5.10
2022-12-06T11:50:17.154Z,4.00
2022-12-06T11:52:52.690Z,5.00
2022-12-06T11:55:27.704Z,4.10
2022-12-06T11:58:02.996Z,4.20
2022-12-06T12:00:35.668Z,4.70
2022-12-06T12:03:08.443Z,4.10
2022-12-06T12:05:39.791Z,5.80
2022-12-06T12:14:02.189Z,4.80
2022-12-06T12:16:36.030Z,5.30
2022-12-06T12:19:20.270Z,4.30
2022-12-06T12:21:54.386Z,4.60
2022-12-06T12:25:17.475Z,4.60
2022-12-06T12:27:41.025Z,5.40
2022-12-06T12:30:27.587Z,5.30
2022-12-06T12:33:19.519Z,4.90
2022-12-06T12:35:52.531Z,5.90
2022-12-06T12:40:56.226Z,5.50
2022-12-06T12:43:28.677Z,5.20
2022-12-06T12:46:22.302Z,7.30
2022-12-06T12:48:53.428Z,4.60
2022-12-06T12:51:29.845Z,6.10
2022-12-06T12:54:02.316Z,6.20
2022-12-06T12:56:36.285Z,4.90
2022-12-06T12:59:13.570Z,7.60
2022-12-06T13:01:46.780Z,6.10
2022-12-06T13:04:30.776Z,4.50
2022-12-06T13:07:04.710Z,6.90
2022-12-06T13:09:42.843Z,5.40
2022-12-06T13:12:16.794Z,5.40
2022-12-06T13:14:59.203Z,5.00
2022-12-06T13:17:33.311Z,8.60
2022-12-06T13:20:06.082Z,6.60
2022-12-06T13:22:45.117Z,4.90
2022-12-06T13:25:15.610Z,5.90
2022-12-06T13:27:48.662Z,6.40
2022-12-06T13:30:22.126Z,5.60
2022-12-06T13:32:55.162Z,5.70
2022-12-06T13:37:57.152Z,7.50
2022-12-06T13:40:51.654Z,5.00
2022-12-06T13:43:56.557Z,5.10
2022-12-06T13:46:34.303Z,5.70
2022-12-06T13:49:10.885Z,5.00
2022-12-06T13:51:49.011Z,5.70
2022-12-06T13:54:38.816Z,7.20
2022-12-06T13:57:31.933Z,5.50
2022-12-06T14:00:02.658Z,5.50
2022-12-06T14:02:46.762Z,4.40
2022-12-06T14:08:21.549Z,5.10
2022-12-06T14:10:52.021Z,4.90
2022-12-06T14:13:23.207Z,5.10
2022-12-06T14:15:55.288Z,5.80
2022-12-06T14:18:28.164Z,5.10
2022-12-06T14:20:59.628Z,6.10
2022-12-06T14:23:32.836Z,5.60
2022-12-06T14:26:22.551Z,7.50
2022-12-06T14:28:54.299Z,9.80
2022-12-06T14:31:28.979Z,7.20
2022-12-06T14:33:59.633Z,8.40
2022-12-06T14:36:32.525Z,7.30
2022-12-06T14:39:07.151Z,8.10
2022-12-06T14:41:57.057Z,7.90
2022-12-06T14:44:32.902Z,8.00
2022-12-06T14:47:03.364Z,10.30
2022-12-06T14:49:54.572Z,8.90
2022-12-06T14:52:28.939Z,9.00
2022-12-06T14:55:18.190Z,8.70
2022-12-06T14:57:50.379Z,12.60
2022-12-06T15:00:27.576Z,10.40
2022-12-06T15:03:23.309Z,11.90
2022-12-06T15:06:09.960Z,11.00
2022-12-06T15:08:41.174Z,10.50
2022-12-06T15:11:49.347Z,9.80
2022-12-06T15:14:22.125Z,12.10
2022-12-06T15:17:01.783Z,12.80
2022-12-06T15:19:33.932Z,10.00
2022-12-06T15:22:05.122Z,10.70
2022-12-06T15:24:35.601Z,9.40
2022-12-06T15:27:06.149Z,11.60
2022-12-06T15:29:36.514Z,9.70
2022-12-06T15:32:07.013Z,10.40
2022-12-06T15:34:37.461Z,10.20
2022-12-06T15:37:37.483Z,11.30
2022-12-06T15:39:58.727Z,10.30
2022-12-06T15:42:29.389Z,11.00
2022-12-06T15:44:59.960Z,11.60
2022-12-06T15:47:30.508Z,11.60
2022-12-06T15:50:01.597Z,16.60
2022-12-06T15:52:32.105Z,14.30
2022-12-06T15:55:02.935Z,12.00
2022-12-06T15:57:33.620Z,10.60
2022-12-06T16:00:05.107Z,10.70
2022-12-06T16:02:35.713Z,11.20
2022-12-06T16:05:06.800Z,11.50
2022-12-06T16:07:37.312Z,11.30
2022-12-06T16:10:09.644Z,9.70
2022-12-06T16:12:53.987Z,11.70
2022-12-06T16:15:24.510Z,14.70
2022-12-06T16:17:55.331Z,10.30
2022-12-06T16:20:31.864Z,9.80
2022-12-06T16:23:21.336Z,8.30
2022-12-06T16:25:51.816Z,10.60
2022-12-06T16:28:22.521Z,12.90
2022-12-06T16:30:52.971Z,10.40
2022-12-06T16:33:25.225Z,10.50
2022-12-06T16:35:56.865Z,10.00
2022-12-06T16:38:27.577Z,10.20
2022-12-06T16:41:03.673Z,12.20
2022-12-06T16:43:36.308Z,11.40
2022-12-06T16:46:25.752Z,13.20
2022-12-06T16:49:10.690Z,12.50
2022-12-06T16:51:49.800Z,11.40
2022-12-06T16:54:20.579Z,9.40
2022-12-06T16:56:52.536Z,11.50
2022-12-06T16:59:57.816Z,11.40
2022-12-06T17:02:30.041Z,11.50
2022-12-06T17:05:05.947Z,17.30
2022-12-06T17:07:40.931Z,14.50
2022-12-06T17:10:12.724Z,14.20
2022-12-06T17:12:43.190Z,11.80
2022-12-06T17:15:14.964Z,11.30
2022-12-06T17:17:45.555Z,12.60
2022-12-06T17:20:17.787Z,12.90
2022-12-06T17:22:48.414Z,13.90
2022-12-06T17:25:19.559Z,13.30
2022-12-06T17:27:51.537Z,12.90
2022-12-06T17:30:23.307Z,9.70
2022-12-06T17:32:53.810Z,11.60
2022-12-06T17:35:24.974Z,10.80
2022-12-06T17:37:55.548Z,10.90
2022-12-06T17:40:26.336Z,11.20
2022-12-06T17:43:02.687Z,13.00
2022-12-06T17:45:33.213Z,14.50
2022-12-06T17:48:03.700Z,11.60
2022-12-06T17:50:34.124Z,16.10
2022-12-06T17:53:05.105Z,10.80
2022-12-06T17:55:35.549Z,16.40
2022-12-06T17:58:06.090Z,12.40
2022-12-06T18:00:36.545Z,23.30
2022-12-06T18:03:07.086Z,16.40
2022-12-06T18:05:39.576Z,20.50
2022-12-06T18:08:10.102Z,19.80
2022-12-06T18:10:40.630Z,13.20
2022-12-06T18:13:11.127Z,18.50
2022-12-06T18:15:43.693Z,13.00
2022-12-06T18:20:44.151Z,19.40
2022-12-06T18:23:14.916Z,16.60
2022-12-06T18:25:45.527Z,17.10
2022-12-06T18:28:15.996Z,12.50
2022-12-06T18:30:47.649Z,15.30
2022-12-06T18:33:21.018Z,14.50
2022-12-06T18:35:55.982Z,14.50
2022-12-06T18:38:26.565Z,15.60
2022-12-06T18:41:03.764Z,16.40
2022-12-06T18:43:35.243Z,19.30
2022-12-06T18:46:12.634Z,12.80
2022-12-06T18:48:44.574Z,16.10
2022-12-06T18:51:16.956Z,15.20
2022-12-06T18:53:48.096Z,17.10
2022-12-06T18:56:20.092Z,17.60
2022-12-06T18:58:51.161Z,14.60
2022-12-06T19:01:23.078Z,16.70
2022-12-06T19:03:55.220Z,14.30
2022-12-06T19:06:28.148Z,16.20
2022-12-06T19:11:28.372Z,15.90
2022-12-06T19:14:00.111Z,16.20
2022-12-06T19:16:34.200Z,15.40
2022-12-06T19:19:08.781Z,15.70
2022-12-06T19:21:43.606Z,15.20
2022-12-06T19:24:16.591Z,16.90
2022-12-06T19:29:19.298Z,16.40
2022-12-06T19:31:49.878Z,14.60
2022-12-06T19:34:22.415Z,19.20
2022-12-06T19:36:54.215Z,18.20
2022-12-06T19:39:26.925Z,16.70
2022-12-06T19:42:15.107Z,14.70
2022-12-06T19:44:45.569Z,14.80
2022-12-06T19:47:16.241Z,13.40
2022-12-06T19:49:46.780Z,17.40
2022-12-06T19:52:17.298Z,16.20
2022-12-06T19:54:47.736Z,19.70
2022-12-06T19:57:18.241Z,16.30
2022-12-06T19:59:48.618Z,38.00
2022-12-06T20:02:19.297Z,25.40
2022-12-06T20:04:50.236Z,20.40
2022-12-06T20:07:22.142Z,19.90
2022-12-06T20:09:52.797Z,18.80
2022-12-06T20:12:23.581Z,14.20
2022-12-06T20:15:01.608Z,15.10
2022-12-06T20:17:32.195Z,16.80
2022-12-06T20:20:03.398Z,16.30
2022-12-06T20:22:34.283Z,12.20
2022-12-06T20:25:04.953Z,11.10
2022-12-06T20:27:54.241Z,11.80
2022-12-06T20:30:25.604Z,13.30
2022-12-06T20:32:59.345Z,14.00
2022-12-06T20:35:29.950Z,16.80
2022-12-06T20:38:00.515Z,18.60
2022-12-06T20:40:31.765Z,19.10
2022-12-06T20:43:02.612Z,20.90
2022-12-06T20:45:35.010Z,15.80
2022-12-06T20:48:07.765Z,15.00
2022-12-06T20:50:40.863Z,16.30
2022-12-06T20:53:11.456Z,17.20
2022-12-06T20:55:44.355Z,16.60
2022-12-06T20:58:16.701Z,25.30
2022-12-06T21:00:49.883Z,22.20
2022-12-06T21:03:20.442Z,16.20
2022-12-06T21:05:55.256Z,14.60
2022-12-06T21:08:25.997Z,17.50
2022-12-06T21:11:21.571Z,15.40
2022-12-06T21:13:48.615Z,19.90
2022-12-06T21:16:21.195Z,22.60
2022-12-06T21:18:59.075Z,18.90
2022-12-06T21:21:31.240Z,14.80
2022-12-06T21:24:02.645Z,14.90
2022-12-06T21:26:33.471Z,16.00
2022-12-06T21:29:07.374Z,18.50
2022-12-06T21:31:43.234Z,20.80
2022-12-06T21:34:14.228Z,21.60
2022-12-06T21:36:49.022Z,20.40
2022-12-06T21:39:22.374Z,16.00
2022-12-06T21:41:53.142Z,16.00
2022-12-06T21:44:23.825Z,16.90
2022-12-06T21:46:54.755Z,13.90
2022-12-06T22:00:12.120Z,16.60
2022-12-06T22:02:46.538Z,17.50
2022-12-06T22:05:17.600Z,19.40
2022-12-06T22:07:48.651Z,17.50
2022-12-06T22:10:19.531Z,22.70
2022-12-06T22:12:50.650Z,21.50
2022-12-06T22:15:21.137Z,20.80
2022-12-06T22:17:52.528Z,16.40
2022-12-06T22:20:23.077Z,17.50
2022-12-06T22:22:53.492Z,18.90
2022-12-06T22:25:23.955Z,19.80
2022-12-06T22:27:55.634Z,22.90
2022-12-06T22:30:26.755Z,28.60
2022-12-06T22:32:57.260Z,21.00
2022-12-06T22:35:28.028Z,20.40
2022-12-06T22:37:58.564Z,21.10
2022-12-06T22:40:29.175Z,26.80
2022-12-06T22:42:59.753Z,24.80
2022-12-06T22:45:30.205Z,23.60
2022-12-06T22:48:00.671Z,27.40
2022-12-06T22:50:31.223Z,21.20
2022-12-06T22:53:01.661Z,27.60
2022-12-06T22:55:32.071Z,23.20
2022-12-06T22:58:02.553Z,23.50
2022-12-06T23:00:32.906Z,27.40
2022-12-06T23:03:03.309Z,23.90
2022-12-06T23:05:33.753Z,25.20
2022-12-06T23:08:04.346Z,24.70
2022-12-06T23:10:34.774Z,21.50
2022-12-06T23:13:05.343Z,17.50
2022-12-06T23:15:35.875Z,23.00
2022-12-06T23:18:06.503Z,32.80
2022-12-06T23:20:36.971Z,26.10
2022-12-06T23:23:07.411Z,24.20
2022-12-06T23:25:38.144Z,26.30
2022-12-06T23:28:08.549Z,25.20
2022-12-06T23:30:38.976Z,21.80
2022-12-06T23:33:10.395Z,23.00
2022-12-06T23:35:40.851Z,26.40
2022-12-06T23:38:11.300Z,24.10
2022-12-06T23:40:41.721Z,22.70
2022-12-06T23:43:12.262Z,23.50
2022-12-06T23:56:35.706Z,24.90
2022-12-06T23:59:07.879Z,24.10
